sensor_id;sensor_type;location;lat;lon;timestamp;pressure;altitude;pressure_sealevel;temperature;humidity
40650;BME280;26342;42.826;23.992;2024-01-27T00:01:35;95840.53;;;-0.68;100.00
40650;BME280;26342;42.826;23.992;2024-01-27T00:04:01;95842.84;;;-0.73;100.00
40650;BME280;26342;42.826;23.992;2024-01-27T00:06:27;95836.78;;;-0.74;100.00
40650;BME280;26342;42.826;23.992;2024-01-27T00:08:52;95829.63;;;-0.80;100.00
40650;BME280;26342;42.826;23.992;2024-01-27T00:11:17;95831.09;;;-0.77;100.00
40650;BME280;26342;42.826;23.992;2024-01-27T00:13:44;95841.41;;;-0.76;100.00
40650;BME280;26342;42.826;23.992;2024-01-27T00:16:09;95849.03;;;-0.89;100.00
40650;BME280;26342;42.826;23.992;2024-01-27T00:18:38;95835.28;;;-0.91;100.00
40650;BME280;26342;42.826;23.992;2024-01-27T00:21:05;95837.97;;;-0.99;100.00
40650;BME280;26342;42.826;23.992;2024-01-27T00:23:31;95832.53;;;-0.98;100.00
40650;BME280;26342;42.826;23.992;2024-01-27T00:25:58;95821.44;;;-1.00;100.00
40650;BME280;26342;42.826;23.992;2024-01-27T00:28:23;95824.69;;;-0.98;100.00
40650;BME280;26342;42.826;23.992;2024-01-27T00:30:48;95820.88;;;-0.95;100.00
40650;BME280;26342;42.826;23.992;2024-01-27T00:33:14;95829.22;;;-0.92;100.00
40650;BME280;26342;42.826;23.992;2024-01-27T00:35:39;95824.44;;;-0.88;100.00
40650;BME280;26342;42.826;23.992;2024-01-27T00:38:05;95826.56;;;-0.83;100.00
40650;BME280;26342;42.826;23.992;2024-01-27T00:40:30;95831.66;;;-0.90;100.00
40650;BME280;26342;42.826;23.992;2024-01-27T00:42:56;95822.81;;;-0.89;100.00
40650;BME280;26342;42.826;23.992;2024-01-27T00:45:21;95832.72;;;-0.99;100.00
40650;BME280;26342;42.826;23.992;2024-01-27T00:47:50;95833.41;;;-1.05;100.00
40650;BME280;26342;42.826;23.992;2024-01-27T00:50:15;95832.59;;;-1.06;100.00
40650;BME280;26342;42.826;23.992;2024-01-27T00:52:41;95829.97;;;-1.06;100.00
40650;BME280;26342;42.826;23.992;2024-01-27T00:55:07;95826.03;;;-1.02;100.00
40650;BME280;26342;42.826;23.992;2024-01-27T00:57:32;95814.44;;;-1.07;100.00
40650;BME280;26342;42.826;23.992;2024-01-27T00:59:58;95800.41;;;-1.15;100.00
40650;BME280;26342;42.826;23.992;2024-01-27T01:02:23;95780.81;;;-1.27;100.00
40650;BME280;26342;42.826;23.992;2024-01-27T01:04:49;95782.09;;;-1.46;100.00
40650;BME280;26342;42.826;23.992;2024-01-27T01:07:14;95786.28;;;-1.36;100.00
40650;BME280;26342;42.826;23.992;2024-01-27T01:09:40;95786.25;;;-1.28;100.00
40650;BME280;26342;42.826;23.992;2024-01-27T01:12:05;95777.69;;;-1.22;100.00
40650;BME280;26342;42.826;23.992;2024-01-27T01:14:31;95774.28;;;-1.23;100.00
40650;BME280;26342;42.826;23.992;2024-01-27T01:16:56;95768.56;;;-1.26;100.00
40650;BME280;26342;42.826;23.992;2024-01-27T01:19:21;95775.03;;;-1.14;100.00
40650;BME280;26342;42.826;23.992;2024-01-27T01:21:47;95784.41;;;-0.97;100.00
40650;BME280;26342;42.826;23.992;2024-01-27T01:24:12;95795.53;;;-0.95;100.00
40650;BME280;26342;42.826;23.992;2024-01-27T01:26:38;95787.19;;;-0.98;100.00
40650;BME280;26342;42.826;23.992;2024-01-27T01:29:03;95779.41;;;-1.06;100.00
40650;BME280;26342;42.826;23.992;2024-01-27T01:31:28;95765.84;;;-1.10;100.00
40650;BME280;26342;42.826;23.992;2024-01-27T01:33:54;95760.25;;;-1.07;100.00
40650;BME280;26342;42.826;23.992;2024-01-27T01:36:19;95769.03;;;-1.00;100.00
40650;BME280;26342;42.826;23.992;2024-01-27T01:38:45;95769.50;;;-0.96;100.00
40650;BME280;26342;42.826;23.992;2024-01-27T01:41:11;95773.22;;;-0.91;100.00
40650;BME280;26342;42.826;23.992;2024-01-27T01:43:37;95768.91;;;-1.06;100.00
40650;BME280;26342;42.826;23.992;2024-01-27T01:46:02;95780.16;;;-1.21;100.00
40650;BME280;26342;42.826;23.992;2024-01-27T01:48:28;95771.06;;;-1.33;100.00
40650;BME280;26342;42.826;23.992;2024-01-27T01:50:54;95767.91;;;-1.28;100.00
40650;BME280;26342;42.826;23.992;2024-01-27T01:53:20;95778.38;;;-1.28;100.00
40650;BME280;26342;42.826;23.992;2024-01-27T01:55:46;95786.06;;;-1.27;100.00
40650;BME280;26342;42.826;23.992;2024-01-27T01:58:12;95773.69;;;-1.33;100.00
40650;BME280;26342;42.826;23.992;2024-01-27T02:00:37;95779.75;;;-1.32;100.00
40650;BME280;26342;42.826;23.992;2024-01-27T02:03:03;95781.81;;;-1.28;100.00
40650;BME280;26342;42.826;23.992;2024-01-27T02:05:28;95777.94;;;-1.32;100.00
40650;BME280;26342;42.826;23.992;2024-01-27T02:07:54;95780.16;;;-1.21;100.00
40650;BME280;26342;42.826;23.992;2024-01-27T02:10:21;95771.78;;;-1.16;100.00
40650;BME280;26342;42.826;23.992;2024-01-27T02:12:47;95759.00;;;-1.19;100.00
40650;BME280;26342;42.826;23.992;2024-01-27T02:15:13;95770.31;;;-1.19;100.00
40650;BME280;26342;42.826;23.992;2024-01-27T02:17:39;95746.69;;;-1.33;100.00
40650;BME280;26342;42.826;23.992;2024-01-27T02:20:06;95763.78;;;-1.23;100.00
40650;BME280;26342;42.826;23.992;2024-01-27T02:22:32;95740.28;;;-1.31;100.00
40650;BME280;26342;42.826;23.992;2024-01-27T02:24:58;95730.00;;;-1.32;100.00
40650;BME280;26342;42.826;23.992;2024-01-27T02:27:24;95733.06;;;-1.29;100.00
40650;BME280;26342;42.826;23.992;2024-01-27T02:29:49;95731.25;;;-1.28;100.00
40650;BME280;26342;42.826;23.992;2024-01-27T02:32:14;95727.19;;;-1.31;100.00
40650;BME280;26342;42.826;23.992;2024-01-27T02:34:40;95718.41;;;-1.38;100.00
40650;BME280;26342;42.826;23.992;2024-01-27T02:37:05;95735.56;;;-1.35;100.00
40650;BME280;26342;42.826;23.992;2024-01-27T02:39:31;95726.97;;;-1.21;100.00
40650;BME280;26342;42.826;23.992;2024-01-27T02:41:56;95728.94;;;-1.23;100.00
40650;BME280;26342;42.826;23.992;2024-01-27T02:44:22;95720.47;;;-1.25;100.00
40650;BME280;26342;42.826;23.992;2024-01-27T02:46:47;95714.91;;;-1.30;100.00
40650;BME280;26342;42.826;23.992;2024-01-27T02:49:13;95720.91;;;-1.22;100.00
40650;BME280;26342;42.826;23.992;2024-01-27T02:51:38;95719.91;;;-1.21;100.00
40650;BME280;26342;42.826;23.992;2024-01-27T02:54:04;95725.03;;;-1.27;100.00
40650;BME280;26342;42.826;23.992;2024-01-27T02:56:29;95731.25;;;-1.28;100.00
40650;BME280;26342;42.826;23.992;2024-01-27T02:58:54;95727.31;;;-1.24;100.00
40650;BME280;26342;42.826;23.992;2024-01-27T03:01:20;95724.16;;;-1.20;100.00
40650;BME280;26342;42.826;23.992;2024-01-27T03:03:45;95723.72;;;-1.23;100.00
40650;BME280;26342;42.826;23.992;2024-01-27T03:06:11;95736.44;;;-1.20;100.00
40650;BME280;26342;42.826;23.992;2024-01-27T03:08:36;95731.03;;;-1.19;100.00
40650;BME280;26342;42.826;23.992;2024-01-27T03:11:02;95728.94;;;-1.23;100.00
40650;BME280;26342;42.826;23.992;2024-01-27T03:13:27;95717.03;;;-1.26;100.00
40650;BME280;26342;42.826;23.992;2024-01-27T03:15:53;95709.38;;;-1.13;100.00
40650;BME280;26342;42.826;23.992;2024-01-27T03:18:18;95706.75;;;-1.13;100.00
40650;BME280;26342;42.826;23.992;2024-01-27T03:20:44;95708.94;;;-1.16;100.00
40650;BME280;26342;42.826;23.992;2024-01-27T03:23:09;95698.63;;;-1.18;100.00
40650;BME280;26342;42.826;23.992;2024-01-27T03:25:35;95692.41;;;-1.17;100.00
40650;BME280;26342;42.826;23.992;2024-01-27T03:28:00;95691.63;;;-1.02;100.00
40650;BME280;26342;42.826;23.992;2024-01-27T03:30:26;95695.88;;;-1.01;100.00
40650;BME280;26342;42.826;23.992;2024-01-27T03:32:51;95698.88;;;-0.90;100.00
40650;BME280;26342;42.826;23.992;2024-01-27T03:35:17;95659.31;;;-0.95;100.00
40650;BME280;26342;42.826;23.992;2024-01-27T03:37:42;95711.56;;;-0.78;100.00
40650;BME280;26342;42.826;23.992;2024-01-27T03:40:08;95703.69;;;-0.78;100.00
40650;BME280;26342;42.826;23.992;2024-01-27T03:42:34;95705.75;;;-0.89;100.00
40650;BME280;26342;42.826;23.992;2024-01-27T03:45:00;95702.31;;;-0.89;100.00
40650;BME280;26342;42.826;23.992;2024-01-27T03:47:25;95690.56;;;-0.93;100.00
40650;BME280;26342;42.826;23.992;2024-01-27T03:49:50;95692.91;;;-0.98;100.00
40650;BME280;26342;42.826;23.992;2024-01-27T03:52:16;95690.66;;;-1.01;100.00
40650;BME280;26342;42.826;23.992;2024-01-27T03:54:41;95681.41;;;-0.97;100.00
40650;BME280;26342;42.826;23.992;2024-01-27T03:57:06;95686.59;;;-0.89;100.00
40650;BME280;26342;42.826;23.992;2024-01-27T03:59:32;95680.94;;;-0.78;100.00
40650;BME280;26342;42.826;23.992;2024-01-27T04:01:57;95668.06;;;-0.88;100.00
40650;BME280;26342;42.826;23.992;2024-01-27T04:04:23;95684.16;;;-0.91;100.00
40650;BME280;26342;42.826;23.992;2024-01-27T04:06:49;95683.06;;;-0.81;100.00
40650;BME280;26342;42.826;23.992;2024-01-27T04:09:14;95679.53;;;-0.89;100.00
40650;BME280;26342;42.826;23.992;2024-01-27T04:11:41;95673.97;;;-0.86;100.00
40650;BME280;26342;42.826;23.992;2024-01-27T04:14:06;95665.91;;;-0.84;100.00
40650;BME280;26342;42.826;23.992;2024-01-27T04:16:32;95673.50;;;-0.74;100.00
40650;BME280;26342;42.826;23.992;2024-01-27T04:18:58;95680.13;;;-0.64;100.00
40650;BME280;26342;42.826;23.992;2024-01-27T04:21:23;95681.75;;;-0.63;100.00
40650;BME280;26342;42.826;23.992;2024-01-27T04:23:48;95673.34;;;-0.58;100.00
40650;BME280;26342;42.826;23.992;2024-01-27T04:26:14;95679.78;;;-0.46;100.00
40650;BME280;26342;42.826;23.992;2024-01-27T04:28:39;95692.53;;;-0.43;100.00
40650;BME280;26342;42.826;23.992;2024-01-27T04:31:05;95691.97;;;-0.53;100.00
40650;BME280;26342;42.826;23.992;2024-01-27T04:33:30;95693.41;;;-0.50;100.00
40650;BME280;26342;42.826;23.992;2024-01-27T04:35:56;95690.44;;;-0.62;100.00
40650;BME280;26342;42.826;23.992;2024-01-27T04:38:21;95693.69;;;-0.60;100.00
40650;BME280;26342;42.826;23.992;2024-01-27T04:40:48;95687.66;;;-0.46;100.00
40650;BME280;26342;42.826;23.992;2024-01-27T04:43:15;95692.34;;;-0.41;100.00
40650;BME280;26342;42.826;23.992;2024-01-27T04:45:41;95697.94;;;-0.44;100.00
40650;BME280;26342;42.826;23.992;2024-01-27T04:48:07;95694.84;;;-0.48;100.00
40650;BME280;26342;42.826;23.992;2024-01-27T04:50:32;95703.19;;;-0.44;100.00
40650;BME280;26342;42.826;23.992;2024-01-27T04:52:58;95695.84;;;-0.49;100.00
40650;BME280;26342;42.826;23.992;2024-01-27T04:55:23;95695.59;;;-0.54;100.00
40650;BME280;26342;42.826;23.992;2024-01-27T04:57:48;95696.59;;;-0.55;100.00
40650;BME280;26342;42.826;23.992;2024-01-27T05:00:14;95700.03;;;-0.54;100.00
40650;BME280;26342;42.826;23.992;2024-01-27T05:02:41;95706.72;;;-0.52;100.00
40650;BME280;26342;42.826;23.992;2024-01-27T05:05:07;95706.25;;;-0.56;100.00
40650;BME280;26342;42.826;23.992;2024-01-27T05:07:33;95699.56;;;-0.43;100.00
40650;BME280;26342;42.826;23.992;2024-01-27T05:09:58;95699.84;;;-0.38;100.00
40650;BME280;26342;42.826;23.992;2024-01-27T05:12:24;95693.16;;;-0.41;100.00
40650;BME280;26342;42.826;23.992;2024-01-27T05:14:49;95698.38;;;-0.26;100.00
40650;BME280;26342;42.826;23.992;2024-01-27T05:17:14;95691.91;;;-0.30;100.00
40650;BME280;26342;42.826;23.992;2024-01-27T05:19:40;95701.00;;;-0.26;100.00
40650;BME280;26342;42.826;23.992;2024-01-27T05:22:05;95697.66;;;-0.20;100.00
40650;BME280;26342;42.826;23.992;2024-01-27T05:24:31;95707.44;;;-0.14;100.00
40650;BME280;26342;42.826;23.992;2024-01-27T05:26:56;95700.19;;;-0.12;100.00
40650;BME280;26342;42.826;23.992;2024-01-27T05:29:22;95704.72;;;-0.06;100.00
40650;BME280;26342;42.826;23.992;2024-01-27T05:31:47;95691.78;;;-0.07;100.00
40650;BME280;26342;42.826;23.992;2024-01-27T05:34:13;95714.84;;;-0.03;100.00
40650;BME280;26342;42.826;23.992;2024-01-27T05:36:39;95698.00;;;-0.08;100.00
40650;BME280;26342;42.826;23.992;2024-01-27T05:39:04;95704.16;;;-0.01;100.00
40650;BME280;26342;42.826;23.992;2024-01-27T05:41:30;95695.13;;;0.02;100.00
40650;BME280;26342;42.826;23.992;2024-01-27T05:43:56;95715.38;;;0.08;100.00
40650;BME280;26342;42.826;23.992;2024-01-27T05:46:23;95699.56;;;0.01;100.00
40650;BME280;26342;42.826;23.992;2024-01-27T05:48:49;95706.44;;;0.02;100.00
40650;BME280;26342;42.826;23.992;2024-01-27T05:51:16;95688.97;;;-0.06;100.00
40650;BME280;26342;42.826;23.992;2024-01-27T05:53:42;95693.75;;;0.06;100.00
40650;BME280;26342;42.826;23.992;2024-01-27T05:56:07;95709.31;;;0.07;100.00
40650;BME280;26342;42.826;23.992;2024-01-27T05:58:32;95696.56;;;0.04;100.00
40650;BME280;26342;42.826;23.992;2024-01-27T06:00:58;95700.47;;;0.08;100.00
40650;BME280;26342;42.826;23.992;2024-01-27T06:03:23;95708.56;;;0.13;100.00
40650;BME280;26342;42.826;23.992;2024-01-27T06:05:49;95690.59;;;0.10;100.00
40650;BME280;26342;42.826;23.992;2024-01-27T06:08:15;95706.22;;;0.18;100.00
40650;BME280;26342;42.826;23.992;2024-01-27T06:10:42;95685.03;;;0.20;100.00
40650;BME280;26342;42.826;23.992;2024-01-27T06:13:08;95697.44;;;0.26;100.00
40650;BME280;26342;42.826;23.992;2024-01-27T06:15:33;95692.25;;;0.33;100.00
40650;BME280;26342;42.826;23.992;2024-01-27T06:17:59;95683.69;;;0.24;100.00
40650;BME280;26342;42.826;23.992;2024-01-27T06:20:24;95691.38;;;0.25;100.00
40650;BME280;26342;42.826;23.992;2024-01-27T06:22:49;95678.38;;;0.39;100.00
40650;BME280;26342;42.826;23.992;2024-01-27T06:25:15;95680.72;;;0.48;100.00
40650;BME280;26342;42.826;23.992;2024-01-27T06:27:41;95669.69;;;0.38;100.00
40650;BME280;26342;42.826;23.992;2024-01-27T06:30:07;95668.56;;;0.47;100.00
40650;BME280;26342;42.826;23.992;2024-01-27T06:32:33;95682.78;;;0.53;100.00
40650;BME280;26342;42.826;23.992;2024-01-27T06:34:58;95670.09;;;0.57;100.00
40650;BME280;26342;42.826;23.992;2024-01-27T06:37:24;95670.72;;;0.59;100.00
40650;BME280;26342;42.826;23.992;2024-01-27T06:39:49;95667.00;;;0.53;100.00
40650;BME280;26342;42.826;23.992;2024-01-27T06:42:15;95691.59;;;0.67;100.00
40650;BME280;26342;42.826;23.992;2024-01-27T06:44:40;95680.63;;;0.63;100.00
40650;BME280;26342;42.826;23.992;2024-01-27T06:47:05;95709.59;;;0.70;100.00
40650;BME280;26342;42.826;23.992;2024-01-27T06:49:31;95700.56;;;0.72;100.00
40650;BME280;26342;42.826;23.992;2024-01-27T06:51:56;95697.97;;;0.58;100.00
40650;BME280;26342;42.826;23.992;2024-01-27T06:54:22;95705.47;;;0.61;100.00
40650;BME280;26342;42.826;23.992;2024-01-27T06:56:48;95716.25;;;0.66;100.00
40650;BME280;26342;42.826;23.992;2024-01-27T06:59:13;95695.09;;;0.52;100.00
40650;BME280;26342;42.826;23.992;2024-01-27T07:01:39;95699.25;;;0.47;100.00
40650;BME280;26342;42.826;23.992;2024-01-27T07:04:10;95697.09;;;0.50;100.00
40650;BME280;26342;42.826;23.992;2024-01-27T07:06:35;95701.72;;;0.48;100.00
40650;BME280;26342;42.826;23.992;2024-01-27T07:09:01;95693.66;;;0.50;100.00
40650;BME280;26342;42.826;23.992;2024-01-27T07:11:26;95683.50;;;0.47;100.00
40650;BME280;26342;42.826;23.992;2024-01-27T07:13:51;95671.75;;;0.43;100.00
40650;BME280;26342;42.826;23.992;2024-01-27T07:16:17;95657.09;;;0.48;100.00
40650;BME280;26342;42.826;23.992;2024-01-27T07:18:42;95659.31;;;0.51;100.00
40650;BME280;26342;42.826;23.992;2024-01-27T07:21:08;95644.53;;;0.65;100.00
40650;BME280;26342;42.826;23.992;2024-01-27T07:23:33;95642.91;;;0.64;100.00
40650;BME280;26342;42.826;23.992;2024-01-27T07:26:00;95642.31;;;0.69;100.00
40650;BME280;26342;42.826;23.992;2024-01-27T07:28:28;95618.53;;;0.77;100.00
40650;BME280;26342;42.826;23.992;2024-01-27T07:30:54;95625.47;;;0.84;100.00
40650;BME280;26342;42.826;23.992;2024-01-27T07:33:20;95606.56;;;0.68;100.00
40650;BME280;26342;42.826;23.992;2024-01-27T07:35:46;95607.84;;;0.78;100.00
40650;BME280;26342;42.826;23.992;2024-01-27T07:38:12;95619.66;;;0.89;100.00
40650;BME280;26342;42.826;23.992;2024-01-27T07:40:38;95604.72;;;0.90;100.00
40650;BME280;26342;42.826;23.992;2024-01-27T07:43:03;95631.56;;;1.13;100.00
40650;BME280;26342;42.826;23.992;2024-01-27T07:45:29;95642.13;;;1.20;100.00
40650;BME280;26342;42.826;23.992;2024-01-27T07:47:55;95655.78;;;1.08;100.00
40650;BME280;26342;42.826;23.992;2024-01-27T07:50:20;95656.16;;;1.05;100.00
40650;BME280;26342;42.826;23.992;2024-01-27T07:52:48;95666.34;;;1.15;100.00
40650;BME280;26342;42.826;23.992;2024-01-27T07:55:13;95670.19;;;1.13;100.00
40650;BME280;26342;42.826;23.992;2024-01-27T07:57:38;95674.84;;;1.17;100.00
40650;BME280;26342;42.826;23.992;2024-01-27T08:00:04;95677.53;;;1.24;100.00
40650;BME280;26342;42.826;23.992;2024-01-27T08:02:31;95690.53;;;1.32;100.00
40650;BME280;26342;42.826;23.992;2024-01-27T08:04:58;95680.22;;;1.30;100.00
40650;BME280;26342;42.826;23.992;2024-01-27T08:07:23;95683.50;;;1.39;100.00
40650;BME280;26342;42.826;23.992;2024-01-27T08:09:48;95700.69;;;1.35;100.00
40650;BME280;26342;42.826;23.992;2024-01-27T08:12:14;95704.94;;;1.36;100.00
40650;BME280;26342;42.826;23.992;2024-01-27T08:14:39;95708.84;;;1.47;100.00
40650;BME280;26342;42.826;23.992;2024-01-27T08:17:05;95728.88;;;1.48;100.00
40650;BME280;26342;42.826;23.992;2024-01-27T08:19:31;95712.44;;;1.39;100.00
40650;BME280;26342;42.826;23.992;2024-01-27T08:21:56;95704.88;;;1.29;100.00
40650;BME280;26342;42.826;23.992;2024-01-27T08:24:22;95736.28;;;1.37;100.00
40650;BME280;26342;42.826;23.992;2024-01-27T08:26:49;95732.41;;;1.33;100.00
40650;BME280;26342;42.826;23.992;2024-01-27T08:29:15;95733.22;;;1.34;100.00
40650;BME280;26342;42.826;23.992;2024-01-27T08:31:40;95737.03;;;1.31;100.00
40650;BME280;26342;42.826;23.992;2024-01-27T08:34:06;95762.38;;;1.39;100.00
40650;BME280;26342;42.826;23.992;2024-01-27T08:36:32;95765.88;;;1.46;100.00
40650;BME280;26342;42.826;23.992;2024-01-27T08:38:59;95775.06;;;1.57;100.00
40650;BME280;26342;42.826;23.992;2024-01-27T08:41:24;95759.13;;;1.58;100.00
40650;BME280;26342;42.826;23.992;2024-01-27T08:43:50;95763.25;;;1.46;100.00
40650;BME280;26342;42.826;23.992;2024-01-27T08:46:16;95749.41;;;1.59;100.00
40650;BME280;26342;42.826;23.992;2024-01-27T08:48:44;95751.09;;;1.73;100.00
40650;BME280;26342;42.826;23.992;2024-01-27T08:51:10;95736.38;;;2.13;100.00
40650;BME280;26342;42.826;23.992;2024-01-27T08:53:38;95741.22;;;2.58;100.00
40650;BME280;26342;42.826;23.992;2024-01-27T08:56:03;95726.47;;;2.83;100.00
40650;BME280;26342;42.826;23.992;2024-01-27T08:58:30;95730.63;;;3.32;100.00
40650;BME280;26342;42.826;23.992;2024-01-27T09:00:55;95714.34;;;3.15;100.00
40650;BME280;26342;42.826;23.992;2024-01-27T09:03:20;95721.44;;;3.08;100.00
40650;BME280;26342;42.826;23.992;2024-01-27T09:05:47;95746.81;;;3.09;100.00
40650;BME280;26342;42.826;23.992;2024-01-27T09:08:12;95737.06;;;3.03;100.00
40650;BME280;26342;42.826;23.992;2024-01-27T09:10:38;95742.94;;;3.05;100.00
40650;BME280;26342;42.826;23.992;2024-01-27T09:13:04;95734.84;;;3.06;100.00
40650;BME280;26342;42.826;23.992;2024-01-27T09:15:30;95745.00;;;3.10;100.00
40650;BME280;26342;42.826;23.992;2024-01-27T09:17:55;95752.28;;;3.07;100.00
40650;BME280;26342;42.826;23.992;2024-01-27T09:20:22;95734.84;;;3.13;100.00
40650;BME280;26342;42.826;23.992;2024-01-27T09:22:47;95734.63;;;3.15;100.00
40650;BME280;26342;42.826;23.992;2024-01-27T09:25:15;95722.06;;;3.10;100.00
40650;BME280;26342;42.826;23.992;2024-01-27T09:27:40;95721.88;;;3.12;100.00
40650;BME280;26342;42.826;23.992;2024-01-27T09:30:07;95711.94;;;3.20;100.00
40650;BME280;26342;42.826;23.992;2024-01-27T09:32:32;95720.66;;;3.34;100.00
40650;BME280;26342;42.826;23.992;2024-01-27T09:34:58;95710.13;;;3.27;100.00
40650;BME280;26342;42.826;23.992;2024-01-27T09:37:23;95704.84;;;3.27;100.00
40650;BME280;26342;42.826;23.992;2024-01-27T09:39:49;95705.06;;;3.32;100.00
40650;BME280;26342;42.826;23.992;2024-01-27T09:42:14;95704.25;;;3.32;100.00
40650;BME280;26342;42.826;23.992;2024-01-27T09:44:43;95696.94;;;3.41;100.00
40650;BME280;26342;42.826;23.992;2024-01-27T09:47:12;95690.44;;;3.43;100.00
40650;BME280;26342;42.826;23.992;2024-01-27T09:49:39;95708.25;;;3.61;100.00
40650;BME280;26342;42.826;23.992;2024-01-27T09:52:06;95714.34;;;3.55;100.00
40650;BME280;26342;42.826;23.992;2024-01-27T09:54:34;95724.91;;;3.55;100.00
40650;BME280;26342;42.826;23.992;2024-01-27T09:57:00;95723.72;;;3.57;100.00
40650;BME280;26342;42.826;23.992;2024-01-27T09:59:26;95725.72;;;3.55;100.00
40650;BME280;26342;42.826;23.992;2024-01-27T10:01:52;95715.38;;;3.54;100.00
40650;BME280;26342;42.826;23.992;2024-01-27T10:04:22;95715.19;;;3.49;100.00
40650;BME280;26342;42.826;23.992;2024-01-27T10:06:49;95713.75;;;3.46;100.00
40650;BME280;26342;42.826;23.992;2024-01-27T10:09:16;95704.44;;;3.44;100.00
40650;BME280;26342;42.826;23.992;2024-01-27T10:11:46;95715.41;;;3.41;100.00
40650;BME280;26342;42.826;23.992;2024-01-27T10:14:12;95727.16;;;3.45;100.00
40650;BME280;26342;42.826;23.992;2024-01-27T10:16:44;95719.03;;;3.46;100.00
40650;BME280;26342;42.826;23.992;2024-01-27T10:19:19;95730.59;;;3.39;100.00
40650;BME280;26342;42.826;23.992;2024-01-27T10:21:46;95726.75;;;3.34;100.00
40650;BME280;26342;42.826;23.992;2024-01-27T10:24:12;95737.50;;;3.33;100.00
40650;BME280;26342;42.826;23.992;2024-01-27T10:26:38;95734.66;;;3.34;100.00
40650;BME280;26342;42.826;23.992;2024-01-27T10:29:03;95741.56;;;3.29;100.00
40650;BME280;26342;42.826;23.992;2024-01-27T10:31:30;95738.34;;;3.40;100.00
40650;BME280;26342;42.826;23.992;2024-01-27T10:33:56;95735.66;;;3.53;100.00
40650;BME280;26342;42.826;23.992;2024-01-27T10:36:25;95736.69;;;3.46;100.00
40650;BME280;26342;42.826;23.992;2024-01-27T10:38:53;95732.41;;;3.38;100.00
40650;BME280;26342;42.826;23.992;2024-01-27T10:41:23;95741.38;;;3.57;100.00
40650;BME280;26342;42.826;23.992;2024-01-27T10:43:53;95741.38;;;3.63;100.00
40650;BME280;26342;42.826;23.992;2024-01-27T10:46:21;95741.16;;;3.65;100.00
40650;BME280;26342;42.826;23.992;2024-01-27T10:48:51;95757.81;;;3.72;100.00
40650;BME280;26342;42.826;23.992;2024-01-27T10:51:25;95754.53;;;3.70;100.00
40650;BME280;26342;42.826;23.992;2024-01-27T10:53:51;95749.69;;;3.74;100.00
40650;BME280;26342;42.826;23.992;2024-01-27T10:56:20;95765.09;;;3.83;100.00
40650;BME280;26342;42.826;23.992;2024-01-27T10:58:47;95764.88;;;3.98;100.00
40650;BME280;26342;42.826;23.992;2024-01-27T11:01:15;95774.41;;;4.12;100.00
40650;BME280;26342;42.826;23.992;2024-01-27T11:03:43;95775.16;;;4.26;100.00
40650;BME280;26342;42.826;23.992;2024-01-27T11:06:11;95792.22;;;4.37;100.00
40650;BME280;26342;42.826;23.992;2024-01-27T11:08:38;95786.13;;;4.30;100.00
40650;BME280;26342;42.826;23.992;2024-01-27T11:11:03;95791.00;;;4.33;100.00
40650;BME280;26342;42.826;23.992;2024-01-27T11:13:31;95792.63;;;4.34;100.00
40650;BME280;26342;42.826;23.992;2024-01-27T11:15:57;95793.41;;;4.41;100.00
40650;BME280;26342;42.826;23.992;2024-01-27T11:18:26;95781.06;;;4.35;100.00
40650;BME280;26342;42.826;23.992;2024-01-27T11:20:55;95797.88;;;4.54;100.00
40650;BME280;26342;42.826;23.992;2024-01-27T11:23:32;95800.06;;;4.63;100.00
40650;BME280;26342;42.826;23.992;2024-01-27T11:26:08;95803.50;;;4.64;100.00
40650;BME280;26342;42.826;23.992;2024-01-27T11:28:34;95805.38;;;4.57;100.00
40650;BME280;26342;42.826;23.992;2024-01-27T11:31:05;95810.63;;;4.63;100.00
40650;BME280;26342;42.826;23.992;2024-01-27T11:33:30;95806.75;;;4.66;100.00
40650;BME280;26342;42.826;23.992;2024-01-27T11:36:02;95812.88;;;4.66;100.00
40650;BME280;26342;42.826;23.992;2024-01-27T11:38:28;95805.72;;;4.73;100.00
40650;BME280;26342;42.826;23.992;2024-01-27T11:40:53;95799.59;;;4.73;100.00
40650;BME280;26342;42.826;23.992;2024-01-27T11:43:19;95808.53;;;4.79;100.00
40650;BME280;26342;42.826;23.992;2024-01-27T11:45:57;95785.66;;;4.59;100.00
40650;BME280;26342;42.826;23.992;2024-01-27T11:48:23;95813.44;;;4.75;100.00
40650;BME280;26342;42.826;23.992;2024-01-27T11:50:49;95815.66;;;4.78;100.00
40650;BME280;26342;42.826;23.992;2024-01-27T11:53:14;95811.41;;;4.77;100.00
40650;BME280;26342;42.826;23.992;2024-01-27T11:55:39;95809.41;;;4.66;100.00
40650;BME280;26342;42.826;23.992;2024-01-27T11:58:05;95814.25;;;4.82;100.00
40650;BME280;26342;42.826;23.992;2024-01-27T12:00:30;95823.56;;;4.85;100.00
40650;BME280;26342;42.826;23.992;2024-01-27T12:02:56;95801.41;;;4.79;100.00
40650;BME280;26342;42.826;23.992;2024-01-27T12:05:22;95829.66;;;4.92;100.00
40650;BME280;26342;42.826;23.992;2024-01-27T12:07:47;95824.38;;;4.85;100.00
40650;BME280;26342;42.826;23.992;2024-01-27T12:10:14;95823.97;;;4.88;100.00
40650;BME280;26342;42.826;23.992;2024-01-27T12:12:39;95844.06;;;4.96;100.00
40650;BME280;26342;42.826;23.992;2024-01-27T12:15:05;95858.09;;;4.96;100.00
40650;BME280;26342;42.826;23.992;2024-01-27T12:17:31;95850.56;;;5.00;100.00
40650;BME280;26342;42.826;23.992;2024-01-27T12:19:56;95836.69;;;5.11;100.00
40650;BME280;26342;42.826;23.992;2024-01-27T12:22:26;95851.13;;;5.15;100.00
40650;BME280;26342;42.826;23.992;2024-01-27T12:24:56;95844.81;;;5.16;100.00
40650;BME280;26342;42.826;23.992;2024-01-27T12:27:32;95846.63;;;5.16;100.00
40650;BME280;26342;42.826;23.992;2024-01-27T12:29:58;95837.69;;;5.17;100.00
40650;BME280;26342;42.826;23.992;2024-01-27T12:32:23;95855.94;;;5.25;100.00
40650;BME280;26342;42.826;23.992;2024-01-27T12:34:49;95841.31;;;5.22;100.00
40650;BME280;26342;42.826;23.992;2024-01-27T12:37:15;95841.69;;;5.26;100.00
40650;BME280;26342;42.826;23.992;2024-01-27T12:39:44;95844.09;;;5.34;100.00